Hovedside
METAR-TAF:

METAR-TAF

Lufthavner :

Björneborg, Finland

Björneborg lufthavn

breddegrad: 61-28N, lengdegrad: 021-48E, høyde over havet: 13 m

Gjeldene værobservasjon

Denne rapporten ble laget for 1 time og 16 minutter siden, klokken 09:50 UTC
Vind 12 kt fra Vest, skiftende mellom Sørvest og Vest-nordvest
Temperatur 7°C
Luftfuktighet 49%
Trykk 1006 hPa
Sikt 10 km eller mer
ingen skyer under 1500 m og ingen bygeskyer

METAR: EFPO 270950Z AUTO 26012KT 220V290 CAVOK 07/M03 Q1006

Tid: 14:06 (11:06 UTC)

Varsel

Denne rapporten ble laget for 2 timer og 31 minutter siden, klokken 08:35 UTC
Varsel gyldig fra 27. klokken 09 UTC til 27. klokken 18 UTC
Vind 10 kt fra Vest med vindkast opp mot 20 kt
Sikt 10 km eller mer
ingen skyer under 1500 m og ingen bygeskyer

TAF: EFPO 270835Z 2709/2718 26010G20KT CAVOK

Værobservasjoner og værvarsel for over 4000 flyplasser (METAR- og TAF-rapporter).

Tilgjengelige stasjoner er representert av de røde og gule prikkene på kartet.

Hold musepekeren over prikken for å se navnet på stasjonen.

Klikk så for å se værobservasjoner og -varsler.

For å forandre kartet kan du klikke på den grønne knappen med svart kryss for å zoome inn, på den grønne knappen med strek for å zoome ut, eller på de grønne pilene for å se tilstøtende kart.


METAR-TAF: